createdAt,value
2022-12-06T00:00:19.614Z,8.63
2022-12-06T00:03:21.191Z,9.63
2022-12-06T00:06:25.377Z,9.68
2022-12-06T00:09:31.549Z,9.52
2022-12-06T00:12:33.162Z,10.73
2022-12-06T00:15:36.475Z,12.60
2022-12-06T00:18:39.673Z,13.47
2022-12-06T00:21:42.068Z,14.52
2022-12-06T00:24:43.591Z,15.02
2022-12-06T00:27:45.096Z,13.32
2022-12-06T00:30:46.636Z,13.85
2022-12-06T00:33:48.896Z,9.43
2022-12-06T00:36:50.430Z,8.73
2022-12-06T00:39:52.005Z,8.40
2022-12-06T00:42:54.019Z,9.00
2022-12-06T00:45:55.913Z,8.93
2022-12-06T00:48:59.091Z,8.45
2022-12-06T00:52:00.805Z,10.70
2022-12-06T00:55:02.299Z,8.30
2022-12-06T00:58:03.930Z,11.32
2022-12-06T01:01:17.690Z,9.90
2022-12-06T01:04:19.301Z,12.98
2022-12-06T01:07:20.972Z,7.72
2022-12-06T01:10:22.576Z,7.35
2022-12-06T01:13:24.224Z,7.85
2022-12-06T01:16:28.714Z,8.25
2022-12-06T01:19:30.228Z,7.60
2022-12-06T01:22:31.919Z,6.65
2022-12-06T01:25:36.174Z,7.07
2022-12-06T01:28:38.155Z,9.00
2022-12-06T01:31:39.755Z,8.23
2022-12-06T01:34:41.577Z,7.53
2022-12-06T01:37:43.136Z,7.80
2022-12-06T01:40:47.003Z,9.68
2022-12-06T01:43:49.194Z,8.82
2022-12-06T01:46:51.236Z,8.73
2022-12-06T01:50:00.555Z,7.68
2022-12-06T01:53:08.708Z,8.88
2022-12-06T01:56:10.705Z,9.40
2022-12-06T01:59:13.519Z,9.00
2022-12-06T02:02:15.235Z,12.05
2022-12-06T02:05:17.577Z,8.68
2022-12-06T02:08:21.666Z,9.27
2022-12-06T02:14:29.683Z,7.90
2022-12-06T02:17:50.047Z,7.55
2022-12-06T02:21:02.668Z,8.13
2022-12-06T02:24:36.408Z,8.52
2022-12-06T02:27:55.115Z,8.55
2022-12-06T02:31:19.067Z,9.48
2022-12-06T02:34:43.195Z,7.80
2022-12-06T02:37:53.483Z,7.65
2022-12-06T02:41:02.750Z,6.00
2022-12-06T02:44:08.349Z,7.10
2022-12-06T02:47:13.070Z,7.45
2022-12-06T02:50:19.388Z,7.10
2022-12-06T02:53:24.201Z,7.70
2022-12-06T02:56:26.317Z,7.43
2022-12-06T02:59:27.943Z,7.25
2022-12-06T03:02:31.996Z,8.05
2022-12-06T03:09:06.208Z,25.90
2022-12-06T03:12:16.510Z,16.23
2022-12-06T03:15:36.526Z,10.77
2022-12-06T03:18:50.373Z,10.70
2022-12-06T03:21:51.917Z,8.70
2022-12-06T03:24:54.247Z,10.15
2022-12-06T03:27:58.734Z,16.75
2022-12-06T03:31:04.391Z,16.58
2022-12-06T03:34:32.169Z,13.25
2022-12-06T03:37:37.905Z,11.40
2022-12-06T03:40:42.800Z,13.75
2022-12-06T03:43:44.792Z,12.32
2022-12-06T03:46:50.527Z,10.20
2022-12-06T03:50:07.522Z,9.10
2022-12-06T03:53:09.352Z,8.60
2022-12-06T03:56:10.965Z,9.23
2022-12-06T03:59:12.570Z,8.60
2022-12-06T04:02:14.191Z,7.72
2022-12-06T04:05:15.785Z,9.50
2022-12-06T04:08:17.333Z,8.38
2022-12-06T04:11:19.271Z,7.10
2022-12-06T04:14:20.834Z,7.65
2022-12-06T04:17:40.759Z,10.70
2022-12-06T04:21:13.971Z,8.95
2022-12-06T04:24:15.490Z,9.18
2022-12-06T04:27:35.626Z,12.38
2022-12-06T04:30:55.576Z,6.82
2022-12-06T04:34:15.814Z,8.02
2022-12-06T04:37:35.761Z,8.25
2022-12-06T04:40:37.283Z,9.75
2022-12-06T04:43:44.656Z,8.60
2022-12-06T04:46:46.486Z,7.75
2022-12-06T04:49:48.178Z,7.57
2022-12-06T04:52:49.736Z,7.68
2022-12-06T04:55:51.939Z,8.13
2022-12-06T04:58:53.475Z,7.28
2022-12-06T05:01:55.998Z,8.27
2022-12-06T05:04:57.581Z,7.47
2022-12-06T05:07:59.154Z,9.43
2022-12-06T05:11:01.229Z,7.90
2022-12-06T05:14:02.806Z,9.43
2022-12-06T05:17:04.398Z,8.43
2022-12-06T05:20:06.901Z,7.05
2022-12-06T05:23:08.391Z,8.02
2022-12-06T05:26:20.350Z,7.75
2022-12-06T05:29:21.938Z,9.35
2022-12-06T05:32:23.498Z,8.70
2022-12-06T05:35:25.082Z,8.50
2022-12-06T05:38:26.680Z,8.45
2022-12-06T05:41:28.280Z,7.38
2022-12-06T05:44:29.819Z,8.32
2022-12-06T05:47:31.351Z,10.13
2022-12-06T05:50:33.149Z,9.23
2022-12-06T05:53:34.746Z,11.68
2022-12-06T05:56:36.342Z,8.40
2022-12-06T05:59:37.923Z,22.35
2022-12-06T06:02:39.499Z,22.70
2022-12-06T06:05:50.141Z,12.15
2022-12-06T06:08:52.718Z,11.32
2022-12-06T06:11:55.945Z,7.63
2022-12-06T06:14:57.530Z,8.45
2022-12-06T06:17:59.058Z,8.02
2022-12-06T06:21:01.147Z,9.35
2022-12-06T06:24:02.969Z,9.00
2022-12-06T06:27:05.142Z,8.30
2022-12-06T06:30:09.542Z,9.30
2022-12-06T06:33:11.179Z,8.07
2022-12-06T06:36:13.058Z,8.77
2022-12-06T06:39:14.713Z,8.02
2022-12-06T06:42:17.519Z,9.32
2022-12-06T06:45:22.568Z,10.73
2022-12-06T06:48:29.527Z,8.88
2022-12-06T06:54:33.311Z,24.67
2022-12-06T06:57:36.106Z,22.23
2022-12-06T07:00:37.719Z,13.98
2022-12-06T07:03:39.278Z,13.18
2022-12-06T07:06:41.043Z,13.77
2022-12-06T07:09:42.792Z,12.60
2022-12-06T07:12:44.454Z,10.13
2022-12-06T07:15:46.180Z,9.52
2022-12-06T07:18:48.105Z,12.70
2022-12-06T07:21:49.812Z,11.70
2022-12-06T07:24:52.639Z,10.15
2022-12-06T07:27:54.430Z,11.10
2022-12-06T07:30:57.126Z,15.30
2022-12-06T07:34:00.912Z,13.15
2022-12-06T07:37:05.084Z,12.68
2022-12-06T07:43:29.023Z,9.27
2022-12-06T07:46:30.883Z,10.90
2022-12-06T07:49:32.571Z,15.15
2022-12-06T07:52:35.892Z,24.33
2022-12-06T07:55:37.492Z,23.40
2022-12-06T07:58:38.967Z,24.42
2022-12-06T08:01:40.621Z,22.88
2022-12-06T08:04:42.304Z,12.25
2022-12-06T08:07:44.805Z,11.40
2022-12-06T08:10:46.412Z,26.85
2022-12-06T08:13:48.593Z,15.93
2022-12-06T08:16:50.495Z,11.77
2022-12-06T08:19:52.335Z,12.27
2022-12-06T08:22:53.826Z,12.48
2022-12-06T08:26:07.071Z,12.30
2022-12-06T08:29:08.739Z,16.92
2022-12-06T08:32:10.243Z,10.15
2022-12-06T08:35:11.937Z,9.80
2022-12-06T08:38:13.543Z,10.32
2022-12-06T08:41:33.864Z,9.52
2022-12-06T08:44:36.382Z,9.43
2022-12-06T08:47:38.002Z,11.52
2022-12-06T08:50:39.631Z,10.75
2022-12-06T08:53:41.219Z,11.63
2022-12-06T08:56:43.118Z,12.48
2022-12-06T08:59:44.633Z,12.40
2022-12-06T09:02:46.218Z,9.90
2022-12-06T09:05:47.901Z,14.10
2022-12-06T09:08:49.988Z,11.70
2022-12-06T09:11:51.559Z,11.93
2022-12-06T09:14:53.039Z,10.88
2022-12-06T09:17:54.512Z,8.60
2022-12-06T09:20:56.035Z,8.23
2022-12-06T09:23:58.111Z,7.35
2022-12-06T09:26:59.645Z,7.20
2022-12-06T09:30:01.779Z,8.38
2022-12-06T09:33:03.643Z,34.70
2022-12-06T09:36:24.194Z,11.23
2022-12-06T09:39:32.322Z,9.88
2022-12-06T09:43:01.882Z,8.40
2022-12-06T09:46:30.776Z,6.47
2022-12-06T09:49:45.013Z,6.13
2022-12-06T09:53:17.380Z,6.43
2022-12-06T09:56:23.140Z,8.55
2022-12-06T09:59:54.954Z,9.55
2022-12-06T10:03:33.844Z,7.47
2022-12-06T10:07:12.282Z,8.20
2022-12-06T10:10:21.321Z,5.90
2022-12-06T10:13:50.551Z,6.15
2022-12-06T10:17:21.057Z,6.78
2022-12-06T10:20:35.369Z,6.72
2022-12-06T10:24:18.272Z,6.72
2022-12-06T10:27:34.585Z,9.27
2022-12-06T10:30:50.681Z,9.63
2022-12-06T10:34:03.544Z,10.50
2022-12-06T10:37:43.435Z,12.50
2022-12-06T10:41:08.040Z,14.48
2022-12-06T10:44:20.084Z,13.05
2022-12-06T10:47:28.454Z,14.13
2022-12-06T10:50:33.760Z,14.93
2022-12-06T10:53:43.991Z,12.05
2022-12-06T10:56:49.884Z,12.25
2022-12-06T11:00:03.641Z,14.75
2022-12-06T11:03:14.227Z,11.30
2022-12-06T11:06:25.870Z,13.57
2022-12-06T11:09:30.027Z,15.20
2022-12-06T11:15:36.583Z,11.65
2022-12-06T11:18:39.929Z,13.75
2022-12-06T11:21:52.328Z,11.63
2022-12-06T11:25:06.498Z,13.60
2022-12-06T11:28:21.454Z,13.02
2022-12-06T11:31:28.230Z,14.27
2022-12-06T11:34:57.059Z,13.15
2022-12-06T11:38:03.322Z,13.32
2022-12-06T11:41:09.924Z,17.75
2022-12-06T11:44:20.243Z,14.80
2022-12-06T11:47:22.800Z,14.63
2022-12-06T11:50:28.146Z,16.40
2022-12-06T11:53:35.581Z,17.20
2022-12-06T11:56:40.426Z,16.13
2022-12-06T12:00:07.858Z,16.15
2022-12-06T12:03:30.676Z,15.73
2022-12-06T12:06:33.072Z,14.75
2022-12-06T12:09:56.767Z,16.88
2022-12-06T12:13:34.854Z,21.30
2022-12-06T12:16:43.530Z,18.13
2022-12-06T12:19:50.735Z,17.63
2022-12-06T12:23:02.178Z,17.58
2022-12-06T12:26:24.770Z,17.10
2022-12-06T12:29:26.365Z,18.83
2022-12-06T12:32:27.860Z,19.25
2022-12-06T12:35:29.378Z,18.08
2022-12-06T12:38:39.067Z,17.20
2022-12-06T12:41:43.488Z,17.30
2022-12-06T12:44:46.258Z,19.27
2022-12-06T12:48:03.001Z,19.40
2022-12-06T12:51:07.353Z,17.58
2022-12-06T12:54:25.911Z,17.02
2022-12-06T12:57:27.551Z,16.77
2022-12-06T13:00:34.999Z,16.40
2022-12-06T13:03:51.036Z,16.25
2022-12-06T13:07:04.150Z,18.40
2022-12-06T13:10:23.640Z,17.40
2022-12-06T13:13:37.413Z,15.85
2022-12-06T13:16:39.084Z,17.30
2022-12-06T13:19:53.090Z,16.08
2022-12-06T13:26:28.440Z,17.70
2022-12-06T13:29:36.979Z,16.42
2022-12-06T13:32:43.132Z,17.45
2022-12-06T13:36:07.360Z,15.77
2022-12-06T13:39:38.706Z,17.00
2022-12-06T13:42:45.360Z,16.27
2022-12-06T13:45:48.496Z,18.35
2022-12-06T13:48:53.016Z,18.60
2022-12-06T13:51:54.559Z,15.63
2022-12-06T13:54:56.219Z,15.77
2022-12-06T13:57:57.844Z,14.98
2022-12-06T14:00:59.482Z,19.45
2022-12-06T14:04:04.426Z,16.00
2022-12-06T14:10:15.205Z,16.45
2022-12-06T14:13:19.393Z,15.50
2022-12-06T14:19:40.645Z,16.88
2022-12-06T14:22:47.193Z,18.42
2022-12-06T14:25:48.854Z,18.63
2022-12-06T14:28:51.902Z,14.13
2022-12-06T14:31:53.436Z,18.00
2022-12-06T14:35:04.658Z,14.43
2022-12-06T14:38:27.416Z,15.73
2022-12-06T14:41:54.085Z,15.52
2022-12-06T14:45:01.727Z,15.80
2022-12-06T14:48:04.522Z,14.75
2022-12-06T14:51:06.102Z,16.05
2022-12-06T14:54:36.419Z,16.17
2022-12-06T14:57:45.824Z,14.45
2022-12-06T15:01:04.585Z,11.80
2022-12-06T15:04:09.327Z,16.35
2022-12-06T15:07:37.769Z,14.82
2022-12-06T15:10:42.933Z,16.67
2022-12-06T15:14:22.897Z,13.07
2022-12-06T15:17:24.763Z,14.68
2022-12-06T15:20:26.324Z,14.35
2022-12-06T15:23:36.085Z,12.40
2022-12-06T15:26:37.629Z,13.05
2022-12-06T15:29:39.522Z,12.90
2022-12-06T15:32:41.150Z,11.85
2022-12-06T15:35:42.890Z,12.80
2022-12-06T15:38:45.008Z,15.43
2022-12-06T15:41:46.848Z,15.30
2022-12-06T15:44:50.180Z,16.15
2022-12-06T15:47:54.037Z,14.43
2022-12-06T15:50:56.643Z,13.50
2022-12-06T15:53:58.786Z,13.65
2022-12-06T15:57:00.327Z,15.63
2022-12-06T16:00:02.253Z,14.70
2022-12-06T16:03:08.109Z,11.60
2022-12-06T16:06:14.703Z,14.23
2022-12-06T16:09:18.820Z,11.25
2022-12-06T16:15:21.799Z,11.77
2022-12-06T16:18:23.377Z,12.50
2022-12-06T16:21:27.836Z,12.60
2022-12-06T16:24:29.898Z,14.27
2022-12-06T16:27:31.425Z,14.77
2022-12-06T16:30:59.354Z,15.00
2022-12-06T16:34:01.184Z,14.80
2022-12-06T16:37:06.422Z,22.70
2022-12-06T16:40:18.990Z,21.30
2022-12-06T16:43:20.611Z,16.40
2022-12-06T16:46:24.988Z,12.35
2022-12-06T16:49:46.689Z,15.52
2022-12-06T16:52:48.938Z,12.82
2022-12-06T16:55:50.497Z,11.27
2022-12-06T16:58:52.640Z,15.13
2022-12-06T17:01:55.146Z,11.52
2022-12-06T17:04:58.844Z,10.73
2022-12-06T17:08:00.650Z,10.75
2022-12-06T17:11:22.219Z,11.60
2022-12-06T17:14:27.544Z,12.80
2022-12-06T17:17:29.451Z,17.90
2022-12-06T17:20:31.048Z,13.88
2022-12-06T17:23:32.590Z,21.45
2022-12-06T17:26:34.104Z,16.45
2022-12-06T17:29:36.614Z,15.55
2022-12-06T17:32:38.201Z,14.25
2022-12-06T17:35:39.817Z,12.85
2022-12-06T17:38:41.326Z,14.30
2022-12-06T17:42:01.845Z,13.80
2022-12-06T17:45:04.712Z,11.75
2022-12-06T17:48:06.512Z,12.13
2022-12-06T17:51:08.244Z,13.27
2022-12-06T17:54:10.170Z,14.85
2022-12-06T17:57:17.109Z,14.23
2022-12-06T18:00:18.949Z,14.80
2022-12-06T18:03:20.669Z,14.85
2022-12-06T18:06:23.957Z,17.42
2022-12-06T18:09:25.724Z,12.77
2022-12-06T18:12:31.835Z,15.32
2022-12-06T18:15:37.856Z,17.30
2022-12-06T18:21:41.358Z,15.30
2022-12-06T18:24:44.648Z,14.63
2022-12-06T18:27:46.245Z,17.43
2022-12-06T18:30:47.911Z,16.65
2022-12-06T18:33:49.476Z,15.13
2022-12-06T18:36:51.291Z,16.30
2022-12-06T18:39:52.892Z,18.33
2022-12-06T18:42:54.804Z,20.40
2022-12-06T18:46:08.864Z,18.38
2022-12-06T18:49:11.853Z,20.15
2022-12-06T18:52:13.542Z,23.27
2022-12-06T18:55:15.070Z,20.20
2022-12-06T18:58:16.674Z,20.05
2022-12-06T19:01:24.515Z,24.02
2022-12-06T19:04:26.191Z,19.48
2022-12-06T19:07:28.005Z,26.25
2022-12-06T19:10:30.019Z,26.70
2022-12-06T19:13:38.438Z,22.52
2022-12-06T19:16:56.023Z,22.13
2022-12-06T19:20:33.686Z,28.33
2022-12-06T19:27:19.732Z,27.88
2022-12-06T19:30:22.687Z,25.92
2022-12-06T19:33:38.680Z,26.27
2022-12-06T19:36:41.748Z,24.77
2022-12-06T19:39:44.013Z,23.00
2022-12-06T19:43:04.219Z,21.63
2022-12-06T19:46:11.659Z,25.67
2022-12-06T19:49:14.726Z,27.25
2022-12-06T19:52:16.632Z,30.35
2022-12-06T19:55:21.032Z,27.33
2022-12-06T19:58:24.050Z,26.85
2022-12-06T20:01:30.174Z,22.67
2022-12-06T20:04:36.422Z,21.17
2022-12-06T20:07:38.055Z,27.48
2022-12-06T20:10:40.237Z,27.77
2022-12-06T20:13:41.918Z,26.73
2022-12-06T20:16:44.323Z,29.27
2022-12-06T20:19:46.466Z,26.25
2022-12-06T20:22:48.051Z,28.73
2022-12-06T20:25:50.482Z,24.17
2022-12-06T20:28:52.106Z,27.08
2022-12-06T20:31:58.162Z,30.60
2022-12-06T20:34:59.908Z,25.08
2022-12-06T20:38:01.924Z,27.02
2022-12-06T20:41:11.038Z,23.92
2022-12-06T20:44:12.641Z,24.83
2022-12-06T20:47:14.258Z,22.38
2022-12-06T20:50:16.399Z,26.50
2022-12-06T20:53:17.963Z,27.73
2022-12-06T20:56:22.003Z,29.35
2022-12-06T20:59:23.551Z,26.98
2022-12-06T21:02:25.265Z,27.92
2022-12-06T21:05:26.791Z,21.85
2022-12-06T21:08:28.669Z,24.58
2022-12-06T21:11:30.551Z,23.27
2022-12-06T21:14:32.127Z,23.50
2022-12-06T21:17:33.707Z,22.67
2022-12-06T21:20:39.234Z,21.95
2022-12-06T21:23:40.845Z,23.65
2022-12-06T21:26:42.854Z,20.92
2022-12-06T21:29:45.066Z,21.38
2022-12-06T21:32:49.074Z,20.27
2022-12-06T21:35:51.282Z,21.95
2022-12-06T21:38:53.983Z,20.73
2022-12-06T21:41:56.186Z,17.30
2022-12-06T21:44:58.596Z,20.08
2022-12-06T21:48:00.151Z,19.83
2022-12-06T21:51:08.239Z,21.52
2022-12-06T21:54:09.878Z,21.05
2022-12-06T21:57:11.378Z,19.23
2022-12-06T22:00:14.921Z,20.30
2022-12-06T22:03:22.680Z,21.75
2022-12-06T22:06:26.013Z,19.48
2022-12-06T22:09:27.579Z,19.25
2022-12-06T22:12:29.222Z,23.17
2022-12-06T22:15:32.492Z,22.77
2022-12-06T22:18:39.843Z,19.00
2022-12-06T22:21:44.490Z,20.30
2022-12-06T22:24:46.084Z,19.42
2022-12-06T22:27:47.542Z,22.45
2022-12-06T22:30:49.023Z,21.58
2022-12-06T22:33:52.223Z,18.58
2022-12-06T22:36:53.771Z,20.17
2022-12-06T22:39:55.300Z,20.95
2022-12-06T22:42:56.875Z,19.35
2022-12-06T22:46:06.875Z,20.10
2022-12-06T22:49:08.467Z,19.15
2022-12-06T22:52:10.015Z,19.50
2022-12-06T22:55:11.588Z,22.05
2022-12-06T22:58:13.125Z,20.20
2022-12-06T23:01:17.676Z,21.23
2022-12-06T23:04:19.321Z,21.55
2022-12-06T23:07:20.834Z,26.08
2022-12-06T23:10:22.394Z,23.25
2022-12-06T23:13:23.956Z,24.98
2022-12-06T23:16:28.007Z,24.52
2022-12-06T23:19:29.621Z,25.00
2022-12-06T23:22:32.260Z,23.02
2022-12-06T23:25:33.747Z,22.58
2022-12-06T23:28:35.866Z,23.33
2022-12-06T23:31:40.012Z,21.42
2022-12-06T23:37:43.086Z,22.10
2022-12-06T23:40:44.603Z,20.85
2022-12-06T23:43:46.657Z,21.42
2022-12-06T23:46:48.346Z,24.05
2022-12-06T23:49:50.106Z,23.08
2022-12-06T23:52:51.739Z,22.88
2022-12-06T23:55:53.399Z,23.20
2022-12-06T23:58:55.408Z,22.58
